sensor_id;sensor_type;location;lat;lon;timestamp;temperature;humidity
3408;DHT22;1717;50.240;8.406;2023-08-06T00:00:38;17.50;99.90
3408;DHT22;1717;50.240;8.406;2023-08-06T00:03:05;17.40;99.90
3408;DHT22;1717;50.240;8.406;2023-08-06T00:05:31;17.30;99.90
3408;DHT22;1717;50.240;8.406;2023-08-06T00:07:58;17.30;99.90
3408;DHT22;1717;50.240;8.406;2023-08-06T00:10:26;17.30;99.90
3408;DHT22;1717;50.240;8.406;2023-08-06T00:12:53;17.30;99.90
3408;DHT22;1717;50.240;8.406;2023-08-06T00:15:20;17.30;99.90
3408;DHT22;1717;50.240;8.406;2023-08-06T00:17:47;17.30;99.90
3408;DHT22;1717;50.240;8.406;2023-08-06T00:20:14;17.20;99.90
3408;DHT22;1717;50.240;8.406;2023-08-06T00:22:40;17.30;99.90
3408;DHT22;1717;50.240;8.406;2023-08-06T00:25:08;17.30;99.90
3408;DHT22;1717;50.240;8.406;2023-08-06T00:27:36;17.20;99.90
3408;DHT22;1717;50.240;8.406;2023-08-06T00:30:04;17.20;99.90
3408;DHT22;1717;50.240;8.406;2023-08-06T00:32:31;17.20;99.90
3408;DHT22;1717;50.240;8.406;2023-08-06T00:34:58;17.20;99.90
3408;DHT22;1717;50.240;8.406;2023-08-06T00:37:25;17.20;99.90
3408;DHT22;1717;50.240;8.406;2023-08-06T00:39:51;17.20;99.90
3408;DHT22;1717;50.240;8.406;2023-08-06T00:42:18;17.20;99.90
3408;DHT22;1717;50.240;8.406;2023-08-06T00:44:47;17.20;99.90
3408;DHT22;1717;50.240;8.406;2023-08-06T00:47:15;17.20;99.90
3408;DHT22;1717;50.240;8.406;2023-08-06T00:49:42;17.20;99.90
3408;DHT22;1717;50.240;8.406;2023-08-06T00:52:09;17.30;99.90
3408;DHT22;1717;50.240;8.406;2023-08-06T00:54:36;17.30;99.90
3408;DHT22;1717;50.240;8.406;2023-08-06T00:57:05;17.30;99.90
3408;DHT22;1717;50.240;8.406;2023-08-06T00:59:34;17.30;99.90
3408;DHT22;1717;50.240;8.406;2023-08-06T01:02:02;17.30;99.90
3408;DHT22;1717;50.240;8.406;2023-08-06T01:04:29;17.30;99.90
3408;DHT22;1717;50.240;8.406;2023-08-06T01:07:04;17.30;99.90
3408;DHT22;1717;50.240;8.406;2023-08-06T01:09:39;17.30;99.90
3408;DHT22;1717;50.240;8.406;2023-08-06T01:12:34;17.30;99.90
3408;DHT22;1717;50.240;8.406;2023-08-06T01:15:06;17.30;99.90
3408;DHT22;1717;50.240;8.406;2023-08-06T01:17:35;17.30;99.90
3408;DHT22;1717;50.240;8.406;2023-08-06T01:20:03;17.30;99.90
3408;DHT22;1717;50.240;8.406;2023-08-06T01:22:31;17.30;99.90
3408;DHT22;1717;50.240;8.406;2023-08-06T01:24:58;17.30;99.90
3408;DHT22;1717;50.240;8.406;2023-08-06T01:27:30;17.30;99.90
3408;DHT22;1717;50.240;8.406;2023-08-06T01:30:03;17.30;99.90
3408;DHT22;1717;50.240;8.406;2023-08-06T01:32:34;17.30;99.90
3408;DHT22;1717;50.240;8.406;2023-08-06T01:35:03;17.30;99.90
3408;DHT22;1717;50.240;8.406;2023-08-06T01:37:32;17.30;99.90
3408;DHT22;1717;50.240;8.406;2023-08-06T01:40:00;17.50;99.90
3408;DHT22;1717;50.240;8.406;2023-08-06T01:42:26;17.40;99.90
3408;DHT22;1717;50.240;8.406;2023-08-06T01:44:53;17.40;99.90
3408;DHT22;1717;50.240;8.406;2023-08-06T01:47:20;17.40;99.90
3408;DHT22;1717;50.240;8.406;2023-08-06T01:49:47;17.40;99.90
3408;DHT22;1717;50.240;8.406;2023-08-06T01:52:13;17.40;99.90
3408;DHT22;1717;50.240;8.406;2023-08-06T01:54:42;17.30;99.90
3408;DHT22;1717;50.240;8.406;2023-08-06T01:57:08;17.40;99.90
3408;DHT22;1717;50.240;8.406;2023-08-06T01:59:35;17.30;99.90
3408;DHT22;1717;50.240;8.406;2023-08-06T02:02:02;17.30;99.90
3408;DHT22;1717;50.240;8.406;2023-08-06T02:04:29;17.30;99.90
3408;DHT22;1717;50.240;8.406;2023-08-06T02:06:56;17.30;99.90
3408;DHT22;1717;50.240;8.406;2023-08-06T02:09:22;17.30;99.90
3408;DHT22;1717;50.240;8.406;2023-08-06T02:11:51;17.40;99.90
3408;DHT22;1717;50.240;8.406;2023-08-06T02:14:17;17.40;99.90
3408;DHT22;1717;50.240;8.406;2023-08-06T02:16:44;17.30;99.90
3408;DHT22;1717;50.240;8.406;2023-08-06T02:19:11;17.40;99.90
3408;DHT22;1717;50.240;8.406;2023-08-06T02:21:38;17.40;99.90
3408;DHT22;1717;50.240;8.406;2023-08-06T02:24:04;17.40;99.90
3408;DHT22;1717;50.240;8.406;2023-08-06T02:26:31;17.40;99.90
3408;DHT22;1717;50.240;8.406;2023-08-06T02:28:59;17.30;99.90
3408;DHT22;1717;50.240;8.406;2023-08-06T02:31:26;17.30;99.90
3408;DHT22;1717;50.240;8.406;2023-08-06T02:33:53;17.30;99.90
3408;DHT22;1717;50.240;8.406;2023-08-06T02:36:20;17.30;99.90
3408;DHT22;1717;50.240;8.406;2023-08-06T02:38:47;17.30;99.90
3408;DHT22;1717;50.240;8.406;2023-08-06T02:41:14;17.30;99.90
3408;DHT22;1717;50.240;8.406;2023-08-06T02:43:40;17.30;99.90
3408;DHT22;1717;50.240;8.406;2023-08-06T02:46:09;17.30;99.90
3408;DHT22;1717;50.240;8.406;2023-08-06T02:48:35;17.30;99.90
3408;DHT22;1717;50.240;8.406;2023-08-06T02:51:02;17.30;99.90
3408;DHT22;1717;50.240;8.406;2023-08-06T02:53:29;17.30;99.90
3408;DHT22;1717;50.240;8.406;2023-08-06T02:55:57;17.20;99.90
3408;DHT22;1717;50.240;8.406;2023-08-06T02:58:24;17.20;99.90
3408;DHT22;1717;50.240;8.406;2023-08-06T03:01:01;17.20;99.90
3408;DHT22;1717;50.240;8.406;2023-08-06T03:03:30;17.10;99.90
3408;DHT22;1717;50.240;8.406;2023-08-06T03:05:57;17.20;99.90
3408;DHT22;1717;50.240;8.406;2023-08-06T03:08:24;17.10;99.90
3408;DHT22;1717;50.240;8.406;2023-08-06T03:10:52;17.10;99.90
3408;DHT22;1717;50.240;8.406;2023-08-06T03:13:19;17.10;99.90
3408;DHT22;1717;50.240;8.406;2023-08-06T03:15:52;17.10;99.90
3408;DHT22;1717;50.240;8.406;2023-08-06T03:18:19;17.10;99.90
3408;DHT22;1717;50.240;8.406;2023-08-06T03:20:48;17.00;99.90
3408;DHT22;1717;50.240;8.406;2023-08-06T03:23:15;17.10;99.90
3408;DHT22;1717;50.240;8.406;2023-08-06T03:25:42;17.00;99.90
3408;DHT22;1717;50.240;8.406;2023-08-06T03:28:08;17.00;99.90
3408;DHT22;1717;50.240;8.406;2023-08-06T03:30:35;17.10;99.90
3408;DHT22;1717;50.240;8.406;2023-08-06T03:33:02;17.10;99.90
3408;DHT22;1717;50.240;8.406;2023-08-06T03:35:29;17.00;99.90
3408;DHT22;1717;50.240;8.406;2023-08-06T03:37:57;17.00;99.90
3408;DHT22;1717;50.240;8.406;2023-08-06T03:40:24;17.00;99.90
3408;DHT22;1717;50.240;8.406;2023-08-06T03:42:51;17.00;99.90
3408;DHT22;1717;50.240;8.406;2023-08-06T03:45:17;17.00;99.90
3408;DHT22;1717;50.240;8.406;2023-08-06T03:47:44;17.00;99.90
3408;DHT22;1717;50.240;8.406;2023-08-06T03:50:11;17.00;99.90
3408;DHT22;1717;50.240;8.406;2023-08-06T03:52:38;17.00;99.90
3408;DHT22;1717;50.240;8.406;2023-08-06T03:55:06;17.00;99.90
3408;DHT22;1717;50.240;8.406;2023-08-06T03:57:33;17.00;99.90
3408;DHT22;1717;50.240;8.406;2023-08-06T04:00:00;17.10;99.90
3408;DHT22;1717;50.240;8.406;2023-08-06T04:02:27;17.00;99.90
3408;DHT22;1717;50.240;8.406;2023-08-06T04:04:53;17.00;99.90
3408;DHT22;1717;50.240;8.406;2023-08-06T04:07:20;17.10;99.90
3408;DHT22;1717;50.240;8.406;2023-08-06T04:09:54;17.00;99.90
3408;DHT22;1717;50.240;8.406;2023-08-06T04:12:23;17.10;99.90
3408;DHT22;1717;50.240;8.406;2023-08-06T04:14:50;17.00;99.90
3408;DHT22;1717;50.240;8.406;2023-08-06T04:17:18;17.00;99.90
3408;DHT22;1717;50.240;8.406;2023-08-06T04:19:47;17.00;99.90
3408;DHT22;1717;50.240;8.406;2023-08-06T04:22:14;17.10;99.90
3408;DHT22;1717;50.240;8.406;2023-08-06T04:24:41;17.00;99.90
3408;DHT22;1717;50.240;8.406;2023-08-06T04:27:08;17.00;99.90
3408;DHT22;1717;50.240;8.406;2023-08-06T04:29:36;17.00;99.90
3408;DHT22;1717;50.240;8.406;2023-08-06T04:32:05;17.00;99.90
3408;DHT22;1717;50.240;8.406;2023-08-06T04:34:32;17.00;99.90
3408;DHT22;1717;50.240;8.406;2023-08-06T04:36:59;17.00;99.90
3408;DHT22;1717;50.240;8.406;2023-08-06T04:39:25;17.00;99.90
3408;DHT22;1717;50.240;8.406;2023-08-06T04:41:52;17.00;99.90
3408;DHT22;1717;50.240;8.406;2023-08-06T04:44:20;17.00;99.90
3408;DHT22;1717;50.240;8.406;2023-08-06T04:46:49;17.00;99.90
3408;DHT22;1717;50.240;8.406;2023-08-06T04:49:15;17.00;99.90
3408;DHT22;1717;50.240;8.406;2023-08-06T04:51:42;17.00;99.90
3408;DHT22;1717;50.240;8.406;2023-08-06T04:54:09;17.00;99.90
3408;DHT22;1717;50.240;8.406;2023-08-06T04:56:36;17.00;99.90
3408;DHT22;1717;50.240;8.406;2023-08-06T04:59:03;17.00;99.90
3408;DHT22;1717;50.240;8.406;2023-08-06T05:01:30;17.00;99.90
3408;DHT22;1717;50.240;8.406;2023-08-06T05:03:58;17.10;99.90
3408;DHT22;1717;50.240;8.406;2023-08-06T05:06:25;17.10;99.90
3408;DHT22;1717;50.240;8.406;2023-08-06T05:08:51;17.10;99.90
3408;DHT22;1717;50.240;8.406;2023-08-06T05:11:18;17.10;99.90
3408;DHT22;1717;50.240;8.406;2023-08-06T05:13:45;17.10;99.90
3408;DHT22;1717;50.240;8.406;2023-08-06T05:16:12;17.00;99.90
3408;DHT22;1717;50.240;8.406;2023-08-06T05:18:39;16.80;99.90
3408;DHT22;1717;50.240;8.406;2023-08-06T05:21:07;16.90;99.90
3408;DHT22;1717;50.240;8.406;2023-08-06T05:23:34;16.90;99.90
3408;DHT22;1717;50.240;8.406;2023-08-06T05:26:01;16.80;99.90
3408;DHT22;1717;50.240;8.406;2023-08-06T05:28:28;16.80;99.90
3408;DHT22;1717;50.240;8.406;2023-08-06T05:30:54;16.90;99.90
3408;DHT22;1717;50.240;8.406;2023-08-06T05:33:21;16.90;99.90
3408;DHT22;1717;50.240;8.406;2023-08-06T05:35:49;16.90;99.90
3408;DHT22;1717;50.240;8.406;2023-08-06T05:38:17;16.80;99.90
3408;DHT22;1717;50.240;8.406;2023-08-06T05:40:44;16.80;99.90
3408;DHT22;1717;50.240;8.406;2023-08-06T05:43:11;16.90;99.90
3408;DHT22;1717;50.240;8.406;2023-08-06T05:45:38;16.80;99.90
3408;DHT22;1717;50.240;8.406;2023-08-06T05:48:05;16.80;99.90
3408;DHT22;1717;50.240;8.406;2023-08-06T05:50:31;16.80;99.90
3408;DHT22;1717;50.240;8.406;2023-08-06T05:52:58;16.80;99.90
3408;DHT22;1717;50.240;8.406;2023-08-06T05:55:26;16.80;99.90
3408;DHT22;1717;50.240;8.406;2023-08-06T05:57:53;16.80;99.90
3408;DHT22;1717;50.240;8.406;2023-08-06T06:00:20;16.70;99.90
3408;DHT22;1717;50.240;8.406;2023-08-06T06:02:47;16.70;99.90
3408;DHT22;1717;50.240;8.406;2023-08-06T06:05:14;16.70;99.90
3408;DHT22;1717;50.240;8.406;2023-08-06T06:07:41;16.80;99.90
3408;DHT22;1717;50.240;8.406;2023-08-06T06:10:08;16.80;99.90
3408;DHT22;1717;50.240;8.406;2023-08-06T06:12:38;16.80;99.90
3408;DHT22;1717;50.240;8.406;2023-08-06T06:15:05;16.80;99.90
3408;DHT22;1717;50.240;8.406;2023-08-06T06:17:32;16.70;99.90
3408;DHT22;1717;50.240;8.406;2023-08-06T06:19:59;16.80;99.90
3408;DHT22;1717;50.240;8.406;2023-08-06T06:22:26;16.80;99.90
3408;DHT22;1717;50.240;8.406;2023-08-06T06:24:54;16.80;99.90
3408;DHT22;1717;50.240;8.406;2023-08-06T06:27:20;16.90;99.90
3408;DHT22;1717;50.240;8.406;2023-08-06T06:29:49;16.90;99.90
3408;DHT22;1717;50.240;8.406;2023-08-06T06:32:16;16.80;99.90
3408;DHT22;1717;50.240;8.406;2023-08-06T06:34:43;16.80;99.90
3408;DHT22;1717;50.240;8.406;2023-08-06T06:37:10;16.90;99.90
3408;DHT22;1717;50.240;8.406;2023-08-06T06:39:37;16.90;99.90
3408;DHT22;1717;50.240;8.406;2023-08-06T06:42:04;17.00;99.90
3408;DHT22;1717;50.240;8.406;2023-08-06T06:44:31;16.90;99.90
3408;DHT22;1717;50.240;8.406;2023-08-06T06:46:59;17.00;99.90
3408;DHT22;1717;50.240;8.406;2023-08-06T06:49:26;17.00;99.90
3408;DHT22;1717;50.240;8.406;2023-08-06T06:51:53;16.90;99.90
3408;DHT22;1717;50.240;8.406;2023-08-06T06:54:19;16.90;99.90
3408;DHT22;1717;50.240;8.406;2023-08-06T06:56:47;16.80;99.90
3408;DHT22;1717;50.240;8.406;2023-08-06T06:59:14;16.70;99.90
3408;DHT22;1717;50.240;8.406;2023-08-06T07:01:40;16.70;99.90
3408;DHT22;1717;50.240;8.406;2023-08-06T07:04:09;16.80;99.90
3408;DHT22;1717;50.240;8.406;2023-08-06T07:06:35;16.70;99.90
3408;DHT22;1717;50.240;8.406;2023-08-06T07:09:02;16.80;99.90
3408;DHT22;1717;50.240;8.406;2023-08-06T07:11:29;16.80;99.90
3408;DHT22;1717;50.240;8.406;2023-08-06T07:13:56;16.80;99.90
3408;DHT22;1717;50.240;8.406;2023-08-06T07:16:24;16.90;99.90
3408;DHT22;1717;50.240;8.406;2023-08-06T07:18:52;16.90;99.90
3408;DHT22;1717;50.240;8.406;2023-08-06T07:21:21;16.80;99.90
3408;DHT22;1717;50.240;8.406;2023-08-06T07:23:48;16.90;99.90
3408;DHT22;1717;50.240;8.406;2023-08-06T07:26:15;16.90;99.90
3408;DHT22;1717;50.240;8.406;2023-08-06T07:28:42;16.90;99.90
3408;DHT22;1717;50.240;8.406;2023-08-06T07:31:10;16.90;99.90
3408;DHT22;1717;50.240;8.406;2023-08-06T07:33:37;16.90;99.90
3408;DHT22;1717;50.240;8.406;2023-08-06T07:36:11;17.10;99.90
3408;DHT22;1717;50.240;8.406;2023-08-06T07:38:40;17.00;99.90
3408;DHT22;1717;50.240;8.406;2023-08-06T07:41:07;17.10;99.90
3408;DHT22;1717;50.240;8.406;2023-08-06T07:43:34;17.10;99.90
3408;DHT22;1717;50.240;8.406;2023-08-06T07:46:02;17.30;99.90
3408;DHT22;1717;50.240;8.406;2023-08-06T07:48:29;17.20;99.90
3408;DHT22;1717;50.240;8.406;2023-08-06T07:50:56;17.20;99.90
3408;DHT22;1717;50.240;8.406;2023-08-06T07:53:24;17.20;99.90
3408;DHT22;1717;50.240;8.406;2023-08-06T07:55:54;17.20;99.90
3408;DHT22;1717;50.240;8.406;2023-08-06T07:58:21;17.20;99.90
3408;DHT22;1717;50.240;8.406;2023-08-06T08:00:48;17.20;99.90
3408;DHT22;1717;50.240;8.406;2023-08-06T08:03:15;17.20;99.90
3408;DHT22;1717;50.240;8.406;2023-08-06T08:05:43;17.40;99.90
3408;DHT22;1717;50.240;8.406;2023-08-06T08:08:10;17.20;99.90
3408;DHT22;1717;50.240;8.406;2023-08-06T08:10:37;17.30;99.90
3408;DHT22;1717;50.240;8.406;2023-08-06T08:13:06;17.30;99.90
3408;DHT22;1717;50.240;8.406;2023-08-06T08:15:33;17.30;99.90
3408;DHT22;1717;50.240;8.406;2023-08-06T08:18:00;17.40;99.90
3408;DHT22;1717;50.240;8.406;2023-08-06T08:20:27;17.40;99.90
3408;DHT22;1717;50.240;8.406;2023-08-06T08:22:57;17.40;99.90
3408;DHT22;1717;50.240;8.406;2023-08-06T08:25:24;17.50;99.90
3408;DHT22;1717;50.240;8.406;2023-08-06T08:27:52;17.50;99.90
3408;DHT22;1717;50.240;8.406;2023-08-06T08:30:20;17.60;99.90
3408;DHT22;1717;50.240;8.406;2023-08-06T08:32:47;17.60;99.90
3408;DHT22;1717;50.240;8.406;2023-08-06T08:35:14;17.60;99.90
3408;DHT22;1717;50.240;8.406;2023-08-06T08:37:41;17.60;99.90
3408;DHT22;1717;50.240;8.406;2023-08-06T08:40:09;17.60;99.90
3408;DHT22;1717;50.240;8.406;2023-08-06T08:42:36;17.70;99.90
3408;DHT22;1717;50.240;8.406;2023-08-06T08:45:05;17.80;99.90
3408;DHT22;1717;50.240;8.406;2023-08-06T08:47:36;17.80;99.90
3408;DHT22;1717;50.240;8.406;2023-08-06T08:50:06;17.90;99.90
3408;DHT22;1717;50.240;8.406;2023-08-06T08:52:33;18.00;99.90
3408;DHT22;1717;50.240;8.406;2023-08-06T08:55:01;18.00;99.90
3408;DHT22;1717;50.240;8.406;2023-08-06T08:57:30;18.10;99.90
3408;DHT22;1717;50.240;8.406;2023-08-06T08:59:57;18.10;99.90
3408;DHT22;1717;50.240;8.406;2023-08-06T09:02:25;18.20;99.90
3408;DHT22;1717;50.240;8.406;2023-08-06T09:04:57;18.30;99.90
3408;DHT22;1717;50.240;8.406;2023-08-06T09:07:26;18.40;99.90
3408;DHT22;1717;50.240;8.406;2023-08-06T09:09:53;18.40;99.90
3408;DHT22;1717;50.240;8.406;2023-08-06T09:12:22;18.50;99.90
3408;DHT22;1717;50.240;8.406;2023-08-06T09:14:48;18.50;99.90
3408;DHT22;1717;50.240;8.406;2023-08-06T09:17:16;18.50;99.90
3408;DHT22;1717;50.240;8.406;2023-08-06T09:19:45;18.60;99.90
3408;DHT22;1717;50.240;8.406;2023-08-06T09:22:15;18.60;99.90
3408;DHT22;1717;50.240;8.406;2023-08-06T09:24:42;18.70;99.90
3408;DHT22;1717;50.240;8.406;2023-08-06T09:27:13;18.70;99.90
3408;DHT22;1717;50.240;8.406;2023-08-06T09:29:41;18.70;99.90
3408;DHT22;1717;50.240;8.406;2023-08-06T09:32:09;18.80;99.90
3408;DHT22;1717;50.240;8.406;2023-08-06T09:34:39;18.90;99.90
3408;DHT22;1717;50.240;8.406;2023-08-06T09:37:06;19.00;99.90
3408;DHT22;1717;50.240;8.406;2023-08-06T09:39:34;19.10;99.90
3408;DHT22;1717;50.240;8.406;2023-08-06T09:42:01;19.10;99.90
3408;DHT22;1717;50.240;8.406;2023-08-06T09:44:32;19.10;99.90
3408;DHT22;1717;50.240;8.406;2023-08-06T09:47:01;19.30;99.90
3408;DHT22;1717;50.240;8.406;2023-08-06T09:49:39;19.30;99.90
3408;DHT22;1717;50.240;8.406;2023-08-06T09:52:10;19.40;99.90
3408;DHT22;1717;50.240;8.406;2023-08-06T09:54:39;19.50;99.90
3408;DHT22;1717;50.240;8.406;2023-08-06T09:57:06;19.60;99.90
3408;DHT22;1717;50.240;8.406;2023-08-06T09:59:33;19.70;99.90
3408;DHT22;1717;50.240;8.406;2023-08-06T10:02:01;19.90;99.90
3408;DHT22;1717;50.240;8.406;2023-08-06T10:04:29;20.00;99.90
3408;DHT22;1717;50.240;8.406;2023-08-06T10:06:56;20.10;99.90
3408;DHT22;1717;50.240;8.406;2023-08-06T10:09:24;20.20;99.90
3408;DHT22;1717;50.240;8.406;2023-08-06T10:11:52;20.30;99.90
3408;DHT22;1717;50.240;8.406;2023-08-06T10:14:24;20.40;99.90
3408;DHT22;1717;50.240;8.406;2023-08-06T10:16:52;20.50;99.90
3408;DHT22;1717;50.240;8.406;2023-08-06T10:19:19;20.50;99.90
3408;DHT22;1717;50.240;8.406;2023-08-06T10:22:08;20.50;99.90
3408;DHT22;1717;50.240;8.406;2023-08-06T10:24:46;20.40;99.90
3408;DHT22;1717;50.240;8.406;2023-08-06T10:27:20;20.30;99.90
3408;DHT22;1717;50.240;8.406;2023-08-06T10:29:47;20.30;99.90
3408;DHT22;1717;50.240;8.406;2023-08-06T10:32:15;20.20;99.90
3408;DHT22;1717;50.240;8.406;2023-08-06T10:34:56;20.00;99.90
3408;DHT22;1717;50.240;8.406;2023-08-06T10:37:24;19.90;99.90
3408;DHT22;1717;50.240;8.406;2023-08-06T10:39:51;19.80;99.90
3408;DHT22;1717;50.240;8.406;2023-08-06T10:42:27;19.80;99.90
3408;DHT22;1717;50.240;8.406;2023-08-06T10:45:14;19.70;99.90
3408;DHT22;1717;50.240;8.406;2023-08-06T10:47:42;19.70;99.90
3408;DHT22;1717;50.240;8.406;2023-08-06T10:50:10;19.70;99.90
3408;DHT22;1717;50.240;8.406;2023-08-06T10:52:37;19.60;99.90
3408;DHT22;1717;50.240;8.406;2023-08-06T10:55:05;19.70;99.90
3408;DHT22;1717;50.240;8.406;2023-08-06T10:57:33;19.80;99.90
3408;DHT22;1717;50.240;8.406;2023-08-06T11:00:00;19.90;99.90
3408;DHT22;1717;50.240;8.406;2023-08-06T11:02:28;19.80;99.90
3408;DHT22;1717;50.240;8.406;2023-08-06T11:05:05;19.90;99.90
3408;DHT22;1717;50.240;8.406;2023-08-06T11:07:32;19.90;99.90
3408;DHT22;1717;50.240;8.406;2023-08-06T11:10:02;19.90;99.90
3408;DHT22;1717;50.240;8.406;2023-08-06T11:12:29;19.80;99.90
3408;DHT22;1717;50.240;8.406;2023-08-06T11:14:58;19.80;99.90
3408;DHT22;1717;50.240;8.406;2023-08-06T11:17:24;19.80;99.90
3408;DHT22;1717;50.240;8.406;2023-08-06T11:19:52;19.80;99.90
3408;DHT22;1717;50.240;8.406;2023-08-06T11:22:20;19.80;99.90
3408;DHT22;1717;50.240;8.406;2023-08-06T11:24:48;19.70;99.90
3408;DHT22;1717;50.240;8.406;2023-08-06T11:27:16;19.60;99.90
3408;DHT22;1717;50.240;8.406;2023-08-06T11:29:43;19.50;99.90
3408;DHT22;1717;50.240;8.406;2023-08-06T11:32:12;19.50;99.90
3408;DHT22;1717;50.240;8.406;2023-08-06T11:34:40;19.40;99.90
3408;DHT22;1717;50.240;8.406;2023-08-06T11:37:07;19.30;99.90
3408;DHT22;1717;50.240;8.406;2023-08-06T11:39:34;19.10;99.90
3408;DHT22;1717;50.240;8.406;2023-08-06T11:42:03;19.00;99.90
3408;DHT22;1717;50.240;8.406;2023-08-06T11:44:31;18.90;99.90
3408;DHT22;1717;50.240;8.406;2023-08-06T11:46:59;18.90;99.90
3408;DHT22;1717;50.240;8.406;2023-08-06T11:49:42;18.80;99.90
3408;DHT22;1717;50.240;8.406;2023-08-06T11:52:13;18.70;99.90
3408;DHT22;1717;50.240;8.406;2023-08-06T11:54:40;18.60;99.90
3408;DHT22;1717;50.240;8.406;2023-08-06T11:57:07;18.60;99.90
3408;DHT22;1717;50.240;8.406;2023-08-06T11:59:35;18.40;99.90
3408;DHT22;1717;50.240;8.406;2023-08-06T12:02:04;18.40;99.90
3408;DHT22;1717;50.240;8.406;2023-08-06T12:04:32;18.30;99.90
3408;DHT22;1717;50.240;8.406;2023-08-06T12:07:18;18.20;99.90
3408;DHT22;1717;50.240;8.406;2023-08-06T12:09:45;18.10;99.90
3408;DHT22;1717;50.240;8.406;2023-08-06T12:12:12;18.10;99.90
3408;DHT22;1717;50.240;8.406;2023-08-06T12:14:39;17.90;99.90
3408;DHT22;1717;50.240;8.406;2023-08-06T12:17:06;17.90;99.90
3408;DHT22;1717;50.240;8.406;2023-08-06T12:19:32;17.70;99.90
3408;DHT22;1717;50.240;8.406;2023-08-06T12:21:59;17.70;99.90
3408;DHT22;1717;50.240;8.406;2023-08-06T12:24:27;17.60;99.90
3408;DHT22;1717;50.240;8.406;2023-08-06T12:26:57;17.60;99.90
3408;DHT22;1717;50.240;8.406;2023-08-06T12:29:25;17.50;99.90
3408;DHT22;1717;50.240;8.406;2023-08-06T12:31:52;17.40;99.90
3408;DHT22;1717;50.240;8.406;2023-08-06T12:34:19;17.30;99.90
3408;DHT22;1717;50.240;8.406;2023-08-06T12:36:45;17.20;99.90
3408;DHT22;1717;50.240;8.406;2023-08-06T12:39:12;17.00;99.90
3408;DHT22;1717;50.240;8.406;2023-08-06T12:41:41;16.90;99.90
3408;DHT22;1717;50.240;8.406;2023-08-06T12:44:09;16.80;99.90
3408;DHT22;1717;50.240;8.406;2023-08-06T12:46:35;16.70;99.90
3408;DHT22;1717;50.240;8.406;2023-08-06T12:49:02;16.70;99.90
3408;DHT22;1717;50.240;8.406;2023-08-06T12:51:29;16.60;99.90
3408;DHT22;1717;50.240;8.406;2023-08-06T12:53:56;16.50;99.90
3408;DHT22;1717;50.240;8.406;2023-08-06T12:56:23;16.40;99.90
3408;DHT22;1717;50.240;8.406;2023-08-06T12:58:51;16.40;99.90
3408;DHT22;1717;50.240;8.406;2023-08-06T13:01:18;16.30;99.90
3408;DHT22;1717;50.240;8.406;2023-08-06T13:03:45;16.30;99.90
3408;DHT22;1717;50.240;8.406;2023-08-06T13:06:12;16.20;99.90
3408;DHT22;1717;50.240;8.406;2023-08-06T13:08:38;16.30;99.90
3408;DHT22;1717;50.240;8.406;2023-08-06T13:11:05;16.20;99.90
3408;DHT22;1717;50.240;8.406;2023-08-06T13:13:32;16.30;99.90
3408;DHT22;1717;50.240;8.406;2023-08-06T13:16:00;16.20;99.90
3408;DHT22;1717;50.240;8.406;2023-08-06T13:18:28;16.20;99.90
3408;DHT22;1717;50.240;8.406;2023-08-06T13:20:55;16.20;99.90
3408;DHT22;1717;50.240;8.406;2023-08-06T13:23:22;16.20;99.90
3408;DHT22;1717;50.240;8.406;2023-08-06T13:25:48;16.20;99.90
3408;DHT22;1717;50.240;8.406;2023-08-06T13:28:15;16.20;99.90
3408;DHT22;1717;50.240;8.406;2023-08-06T13:30:42;16.30;99.90
3408;DHT22;1717;50.240;8.406;2023-08-06T13:33:11;16.10;99.90
3408;DHT22;1717;50.240;8.406;2023-08-06T13:35:38;16.20;99.90
3408;DHT22;1717;50.240;8.406;2023-08-06T13:38:06;16.10;99.90
3408;DHT22;1717;50.240;8.406;2023-08-06T13:40:34;16.20;99.90
3408;DHT22;1717;50.240;8.406;2023-08-06T13:43:01;16.20;99.90
3408;DHT22;1717;50.240;8.406;2023-08-06T13:45:27;16.20;99.90
3408;DHT22;1717;50.240;8.406;2023-08-06T13:47:56;16.10;99.90
3408;DHT22;1717;50.240;8.406;2023-08-06T13:50:25;16.10;99.90
3408;DHT22;1717;50.240;8.406;2023-08-06T13:52:53;16.10;99.90
3408;DHT22;1717;50.240;8.406;2023-08-06T13:55:21;16.10;99.90
3408;DHT22;1717;50.240;8.406;2023-08-06T13:57:48;16.10;99.90
3408;DHT22;1717;50.240;8.406;2023-08-06T14:00:15;16.10;99.90
3408;DHT22;1717;50.240;8.406;2023-08-06T14:02:41;16.10;99.90
3408;DHT22;1717;50.240;8.406;2023-08-06T14:05:10;16.10;99.90
3408;DHT22;1717;50.240;8.406;2023-08-06T14:07:38;16.10;99.90
3408;DHT22;1717;50.240;8.406;2023-08-06T14:10:06;16.10;99.90
3408;DHT22;1717;50.240;8.406;2023-08-06T14:12:34;16.20;99.90
3408;DHT22;1717;50.240;8.406;2023-08-06T14:15:01;16.20;99.90
3408;DHT22;1717;50.240;8.406;2023-08-06T14:17:29;16.20;99.90
3408;DHT22;1717;50.240;8.406;2023-08-06T14:19:56;16.30;99.90
3408;DHT22;1717;50.240;8.406;2023-08-06T14:22:23;16.30;99.90
3408;DHT22;1717;50.240;8.406;2023-08-06T14:24:51;16.30;99.90
3408;DHT22;1717;50.240;8.406;2023-08-06T14:27:18;16.40;99.90
3408;DHT22;1717;50.240;8.406;2023-08-06T14:29:45;16.40;99.90
3408;DHT22;1717;50.240;8.406;2023-08-06T14:32:12;16.40;99.90
3408;DHT22;1717;50.240;8.406;2023-08-06T14:34:40;16.40;99.90
3408;DHT22;1717;50.240;8.406;2023-08-06T14:37:07;16.50;99.90
3408;DHT22;1717;50.240;8.406;2023-08-06T14:39:33;16.40;99.90
3408;DHT22;1717;50.240;8.406;2023-08-06T14:42:02;16.40;99.90
3408;DHT22;1717;50.240;8.406;2023-08-06T14:44:30;16.40;99.90
3408;DHT22;1717;50.240;8.406;2023-08-06T14:46:56;16.40;99.90
3408;DHT22;1717;50.240;8.406;2023-08-06T14:49:23;16.50;99.90
3408;DHT22;1717;50.240;8.406;2023-08-06T14:51:50;16.50;99.90
3408;DHT22;1717;50.240;8.406;2023-08-06T14:54:17;16.50;99.90
3408;DHT22;1717;50.240;8.406;2023-08-06T14:56:44;16.40;99.90
3408;DHT22;1717;50.240;8.406;2023-08-06T14:59:12;16.40;99.90
3408;DHT22;1717;50.240;8.406;2023-08-06T15:01:39;16.40;99.90
3408;DHT22;1717;50.240;8.406;2023-08-06T15:04:06;16.40;99.90
3408;DHT22;1717;50.240;8.406;2023-08-06T15:06:33;16.40;99.90
3408;DHT22;1717;50.240;8.406;2023-08-06T15:09:00;16.40;99.90
3408;DHT22;1717;50.240;8.406;2023-08-06T15:11:27;16.40;99.90
3408;DHT22;1717;50.240;8.406;2023-08-06T15:13:53;16.40;99.90
3408;DHT22;1717;50.240;8.406;2023-08-06T15:16:22;16.30;99.90
3408;DHT22;1717;50.240;8.406;2023-08-06T15:18:48;16.30;99.90
3408;DHT22;1717;50.240;8.406;2023-08-06T15:21:15;16.30;99.90
3408;DHT22;1717;50.240;8.406;2023-08-06T15:23:43;16.30;99.90
3408;DHT22;1717;50.240;8.406;2023-08-06T15:26:09;16.30;99.90
3408;DHT22;1717;50.240;8.406;2023-08-06T15:28:37;16.30;99.90
3408;DHT22;1717;50.240;8.406;2023-08-06T15:31:03;16.20;99.90
3408;DHT22;1717;50.240;8.406;2023-08-06T15:33:34;16.20;99.90
3408;DHT22;1717;50.240;8.406;2023-08-06T15:36:01;16.20;99.90
3408;DHT22;1717;50.240;8.406;2023-08-06T15:38:28;16.10;99.90
3408;DHT22;1717;50.240;8.406;2023-08-06T15:40:55;16.20;99.90
3408;DHT22;1717;50.240;8.406;2023-08-06T15:43:22;16.20;99.90
3408;DHT22;1717;50.240;8.406;2023-08-06T15:45:49;16.20;99.90
3408;DHT22;1717;50.240;8.406;2023-08-06T15:48:16;16.20;99.90
3408;DHT22;1717;50.240;8.406;2023-08-06T15:50:44;16.20;99.90
3408;DHT22;1717;50.240;8.406;2023-08-06T15:53:11;16.20;99.90
3408;DHT22;1717;50.240;8.406;2023-08-06T15:55:38;16.20;99.90
3408;DHT22;1717;50.240;8.406;2023-08-06T15:58:05;16.10;99.90
3408;DHT22;1717;50.240;8.406;2023-08-06T16:00:32;16.10;99.90
3408;DHT22;1717;50.240;8.406;2023-08-06T16:02:59;16.10;99.90
3408;DHT22;1717;50.240;8.406;2023-08-06T16:05:26;16.10;99.90